createdAt,value
2022-10-06T00:02:25.264Z,101039.53
2022-10-06T00:04:51.888Z,101045.00
2022-10-06T00:07:18.491Z,101042.56
2022-10-06T00:09:45.068Z,101055.16
2022-10-06T00:12:11.952Z,101065.72
2022-10-06T00:14:38.527Z,101059.47
2022-10-06T00:17:05.331Z,101073.78
2022-10-06T00:19:31.973Z,101079.81
2022-10-06T00:21:58.635Z,101083.72
2022-10-06T00:24:25.260Z,101077.19
2022-10-06T00:26:51.874Z,101087.22
2022-10-06T00:29:18.878Z,101087.13
2022-10-06T00:31:45.848Z,101088.88
2022-10-06T00:34:12.909Z,101097.06
2022-10-06T00:36:39.881Z,101100.28
2022-10-06T00:39:06.870Z,101095.56
2022-10-06T00:41:33.520Z,101106.81
2022-10-06T00:44:00.333Z,101110.97
2022-10-06T00:46:36.673Z,101105.09
2022-10-06T00:49:06.791Z,101116.50
2022-10-06T00:51:35.842Z,101121.00
2022-10-06T00:54:03.353Z,101110.16
2022-10-06T00:56:30.017Z,101128.38
2022-10-06T00:58:56.893Z,101122.34
2022-10-06T01:01:24.820Z,101117.91
2022-10-06T01:03:57.712Z,101125.63
2022-10-06T01:06:24.303Z,101129.75
2022-10-06T01:08:54.570Z,101136.00
2022-10-06T01:11:21.350Z,101139.75
2022-10-06T01:13:48.093Z,101145.81
2022-10-06T01:16:23.263Z,101146.72
2022-10-06T01:18:53.244Z,101146.13
2022-10-06T01:21:38.903Z,101151.69
2022-10-06T01:24:07.820Z,101164.47
2022-10-06T01:26:37.856Z,101169.25
2022-10-06T01:29:04.910Z,101171.84
2022-10-06T01:31:35.364Z,101175.66
2022-10-06T01:34:02.060Z,101175.66
2022-10-06T01:36:28.873Z,101188.75
2022-10-06T01:38:55.495Z,101189.50
2022-10-06T01:41:22.596Z,101183.09
2022-10-06T01:43:49.667Z,101200.31
2022-10-06T01:46:16.312Z,101190.31
2022-10-06T01:48:42.931Z,101189.34
2022-10-06T01:51:16.200Z,101201.16
2022-10-06T01:53:42.938Z,101201.03
2022-10-06T01:56:09.596Z,101198.22
2022-10-06T01:58:36.212Z,101213.31
2022-10-06T02:01:09.954Z,101220.63
2022-10-06T02:03:38.046Z,101222.94
2022-10-06T02:06:05.077Z,101234.16
2022-10-06T02:08:32.521Z,101244.31
2022-10-06T02:11:07.008Z,101236.41
2022-10-06T02:13:33.589Z,101255.72
2022-10-06T02:16:06.626Z,101256.03
2022-10-06T02:18:34.586Z,101251.97
2022-10-06T02:21:02.313Z,101259.03
2022-10-06T02:23:29.940Z,101260.63
2022-10-06T02:26:05.586Z,101282.13
2022-10-06T02:28:34.650Z,101277.91
2022-10-06T02:31:05.335Z,101284.66
2022-10-06T02:33:32.900Z,101292.81
2022-10-06T02:36:01.054Z,101285.59
2022-10-06T02:38:30.172Z,101301.72
2022-10-06T02:41:02.047Z,101303.09
2022-10-06T02:43:31.740Z,101319.16
2022-10-06T02:46:03.413Z,101304.34
2022-10-06T02:48:31.143Z,101308.22
2022-10-06T02:51:08.036Z,101315.22
2022-10-06T02:53:35.225Z,101318.88
2022-10-06T02:56:07.742Z,101330.31
2022-10-06T02:58:34.472Z,101331.69
2022-10-06T03:01:08.210Z,101334.84
2022-10-06T03:03:36.328Z,101351.75
2022-10-06T03:06:24.117Z,101337.38
2022-10-06T03:09:07.951Z,101353.22
2022-10-06T03:11:39.220Z,101352.91
2022-10-06T03:14:07.216Z,101362.75
2022-10-06T03:16:39.191Z,101368.69
2022-10-06T03:19:12.134Z,101377.19
2022-10-06T03:21:44.927Z,101373.56
2022-10-06T03:24:15.912Z,101380.19
2022-10-06T03:26:47.807Z,101389.66
2022-10-06T03:29:16.422Z,101381.03
2022-10-06T03:31:47.912Z,101401.44
2022-10-06T03:34:15.215Z,101405.78
2022-10-06T03:36:44.356Z,101406.50
2022-10-06T03:39:14.344Z,101401.97
2022-10-06T03:41:41.051Z,101407.06
2022-10-06T03:44:09.464Z,101407.25
2022-10-06T03:46:39.024Z,101415.06
2022-10-06T03:49:07.821Z,101423.81
2022-10-06T03:51:38.800Z,101429.88
2022-10-06T03:54:10.699Z,101421.34
2022-10-06T03:56:40.802Z,101433.28
2022-10-06T03:59:11.928Z,101434.81
2022-10-06T04:01:45.842Z,101438.97
2022-10-06T04:04:15.383Z,101440.06
2022-10-06T04:06:44.746Z,101455.03
2022-10-06T04:09:17.255Z,101451.22
2022-10-06T04:11:45.362Z,101458.59
2022-10-06T04:14:15.419Z,101460.13
2022-10-06T04:16:49.097Z,101461.09
2022-10-06T04:19:20.877Z,101479.78
2022-10-06T04:21:53.450Z,101472.22
2022-10-06T04:24:26.352Z,101474.06
2022-10-06T04:26:53.324Z,101479.41
2022-10-06T04:29:21.354Z,101487.41
2022-10-06T04:31:54.967Z,101492.06
2022-10-06T04:34:26.990Z,101505.56
2022-10-06T04:36:54.059Z,101498.69
2022-10-06T04:39:21.542Z,101502.16
2022-10-06T04:41:48.805Z,101509.44
2022-10-06T04:44:25.792Z,101517.22
2022-10-06T04:46:54.721Z,101523.28
2022-10-06T04:49:21.287Z,101515.97
2022-10-06T04:51:51.349Z,101530.94
2022-10-06T04:54:19.282Z,101536.34
2022-10-06T04:56:48.078Z,101541.00
2022-10-06T04:59:16.234Z,101545.66
2022-10-06T05:01:44.579Z,101548.69
2022-10-06T05:04:13.256Z,101554.84
2022-10-06T05:06:41.598Z,101558.13
2022-10-06T05:09:14.827Z,101565.47
2022-10-06T05:11:49.350Z,101562.38
2022-10-06T05:14:18.688Z,101579.97
2022-10-06T05:16:48.040Z,101586.81
2022-10-06T05:19:18.504Z,101594.50
2022-10-06T05:21:45.009Z,101601.03
2022-10-06T05:24:16.431Z,101601.03
2022-10-06T05:26:43.465Z,101614.84
2022-10-06T05:29:12.994Z,101606.63
2022-10-06T05:31:41.275Z,101615.19
2022-10-06T05:34:08.483Z,101619.16
2022-10-06T05:36:35.755Z,101626.91
2022-10-06T05:39:03.927Z,101622.50
2022-10-06T05:41:38.182Z,101621.97
2022-10-06T05:44:08.584Z,101636.16
2022-10-06T05:46:37.371Z,101642.19
2022-10-06T05:49:09.474Z,101650.19
2022-10-06T05:51:40.421Z,101657.94
2022-10-06T05:54:12.767Z,101660.75
2022-10-06T05:56:39.355Z,101652.97
2022-10-06T05:59:07.194Z,101662.13
2022-10-06T06:01:37.946Z,101686.63
2022-10-06T06:04:11.865Z,101693.88
2022-10-06T06:06:48.870Z,101683.34
2022-10-06T06:09:32.386Z,101689.53
2022-10-06T06:12:00.791Z,101705.28
2022-10-06T06:14:56.995Z,101711.91
2022-10-06T06:17:36.412Z,101712.91
2022-10-06T06:20:05.206Z,101722.53
2022-10-06T06:22:31.705Z,101731.13
2022-10-06T06:24:58.638Z,101726.25
2022-10-06T06:27:26.194Z,101730.31
2022-10-06T06:29:53.301Z,101739.44
2022-10-06T06:32:19.800Z,101736.59
2022-10-06T06:34:46.541Z,101734.31
2022-10-06T06:37:15.410Z,101745.78
2022-10-06T06:39:44.736Z,101752.78
2022-10-06T06:42:11.762Z,101761.47
2022-10-06T06:44:38.655Z,101758.75
2022-10-06T06:47:12.672Z,101753.63
2022-10-06T06:49:39.221Z,101760.75
2022-10-06T06:52:08.141Z,101770.09
2022-10-06T06:54:36.336Z,101783.41
2022-10-06T06:57:08.165Z,101790.53
2022-10-06T06:59:36.808Z,101790.31
2022-10-06T07:02:05.128Z,101793.50
2022-10-06T07:04:37.326Z,101777.63
2022-10-06T07:07:05.590Z,101804.47
2022-10-06T07:09:35.568Z,101808.69
2022-10-06T07:12:11.445Z,101813.16
2022-10-06T07:15:00.379Z,101808.09
2022-10-06T07:17:48.069Z,101825.69
2022-10-06T07:20:33.791Z,101836.13
2022-10-06T07:23:19.259Z,101831.22
2022-10-06T07:25:45.995Z,101839.59
2022-10-06T07:28:16.871Z,101841.78
2022-10-06T07:30:44.845Z,101841.31
2022-10-06T07:33:18.441Z,101851.50
2022-10-06T07:35:46.430Z,101857.94
2022-10-06T07:38:15.080Z,101855.47
2022-10-06T07:40:50.626Z,101860.81
2022-10-06T07:43:33.065Z,101873.53
2022-10-06T07:46:00.242Z,101874.44
2022-10-06T07:48:37.993Z,101874.69
2022-10-06T07:51:12.198Z,101877.47
2022-10-06T07:53:39.912Z,101881.19
2022-10-06T07:56:16.453Z,101894.91
2022-10-06T07:58:51.072Z,101903.75
2022-10-06T08:01:20.211Z,101904.09
2022-10-06T08:03:48.568Z,101914.88
2022-10-06T08:06:19.704Z,101916.84
2022-10-06T08:08:52.716Z,101919.38
2022-10-06T08:11:20.157Z,101917.59
2022-10-06T08:13:50.428Z,101924.22
2022-10-06T08:16:20.204Z,101926.50
2022-10-06T08:18:53.289Z,101928.78
2022-10-06T08:21:25.826Z,101930.53
2022-10-06T08:23:53.508Z,101938.31
2022-10-06T08:26:21.456Z,101953.94
2022-10-06T08:28:51.007Z,101949.41
2022-10-06T08:31:21.216Z,101964.53
2022-10-06T08:33:48.740Z,101954.34
2022-10-06T08:36:17.836Z,101967.53
2022-10-06T08:38:47.335Z,101967.56
2022-10-06T08:41:18.045Z,101975.72
2022-10-06T08:43:48.891Z,101979.28
2022-10-06T08:46:19.846Z,101976.59
2022-10-06T08:48:49.321Z,101979.63
2022-10-06T08:51:47.246Z,101985.88
2022-10-06T08:54:31.785Z,101981.16
2022-10-06T08:57:22.365Z,101989.03
2022-10-06T08:59:53.338Z,101994.56
2022-10-06T09:02:33.252Z,101987.38
2022-10-06T09:05:02.666Z,101996.31
2022-10-06T09:08:12.380Z,102001.78
2022-10-06T09:11:11.116Z,102015.75
2022-10-06T09:13:52.247Z,102018.34
2022-10-06T09:16:28.261Z,102024.47
2022-10-06T09:19:08.559Z,102024.75
2022-10-06T09:21:47.674Z,102032.44
2022-10-06T09:24:28.244Z,102033.56
2022-10-06T09:26:59.010Z,102035.34
2022-10-06T09:29:31.722Z,102050.88
2022-10-06T09:31:59.207Z,102045.88
2022-10-06T09:34:50.854Z,102058.41
2022-10-06T09:37:17.487Z,102055.59
2022-10-06T09:39:48.286Z,102054.22
2022-10-06T09:42:24.328Z,102062.22
2022-10-06T09:44:57.308Z,102068.09
2022-10-06T09:47:39.308Z,102066.78
2022-10-06T09:50:13.536Z,102062.16
2022-10-06T09:53:01.023Z,102074.16
2022-10-06T09:55:40.277Z,102072.50
2022-10-06T09:58:39.320Z,102077.56
2022-10-06T10:01:08.366Z,102085.50
2022-10-06T10:03:56.544Z,102068.94
2022-10-06T10:06:35.125Z,102080.91
2022-10-06T10:09:21.851Z,102082.59
2022-10-06T10:12:28.743Z,102089.09
2022-10-06T10:15:18.397Z,102099.94
2022-10-06T10:17:50.301Z,102101.84
2022-10-06T10:20:28.206Z,102092.25
2022-10-06T10:23:01.482Z,102101.84
2022-10-06T10:25:44.599Z,102101.53
2022-10-06T10:28:11.174Z,102102.63
2022-10-06T10:31:05.243Z,102106.25
2022-10-06T10:34:12.001Z,102112.88
2022-10-06T10:36:51.684Z,102120.25
2022-10-06T10:39:33.629Z,102125.16
2022-10-06T10:42:04.920Z,102135.75
2022-10-06T10:44:41.300Z,102128.28
2022-10-06T10:47:29.739Z,102131.78
2022-10-06T10:50:06.290Z,102137.03
2022-10-06T10:52:41.610Z,102133.59
2022-10-06T10:55:17.898Z,102138.06
2022-10-06T10:57:46.300Z,102146.31
2022-10-06T11:00:19.452Z,102142.78
2022-10-06T11:02:46.913Z,102142.34
2022-10-06T11:05:36.255Z,102146.66
2022-10-06T11:08:28.778Z,102151.25
2022-10-06T11:11:02.339Z,102149.78
2022-10-06T11:13:33.316Z,102149.22
2022-10-06T11:16:20.982Z,102148.22
2022-10-06T11:19:05.744Z,102160.59
2022-10-06T11:21:51.329Z,102151.53
2022-10-06T11:24:20.805Z,102148.22
2022-10-06T11:27:12.981Z,102150.16
2022-10-06T11:29:57.143Z,102160.97
2022-10-06T11:35:03.508Z,102164.97
2022-10-06T11:37:47.645Z,102162.88
2022-10-06T11:40:52.022Z,102166.91
2022-10-06T11:43:52.295Z,102175.25
2022-10-06T11:46:32.358Z,102161.88
2022-10-06T11:49:45.301Z,102162.16
2022-10-06T11:52:11.838Z,102169.56
2022-10-06T11:54:44.676Z,102174.63
2022-10-06T11:57:29.344Z,102168.28
2022-10-06T12:00:17.254Z,102180.66
2022-10-06T12:02:46.253Z,102170.56
2022-10-06T12:05:49.390Z,102177.78
2022-10-06T12:08:00.583Z,102182.22
2022-10-06T12:10:30.282Z,102186.59
2022-10-06T12:13:40.115Z,102181.84
2022-10-06T12:17:06.038Z,102182.22
2022-10-06T12:19:24.382Z,102187.81
2022-10-06T12:22:08.120Z,102187.91
2022-10-06T12:24:34.656Z,102185.19
2022-10-06T12:27:22.033Z,102177.13
2022-10-06T12:30:03.877Z,102178.00
2022-10-06T12:32:53.302Z,102188.38
2022-10-06T12:35:24.908Z,102184.53
2022-10-06T12:37:58.356Z,102189.28
2022-10-06T12:40:55.538Z,102194.19
2022-10-06T12:43:22.528Z,102199.16
2022-10-06T12:46:08.127Z,102194.91
2022-10-06T12:49:02.158Z,102182.91
2022-10-06T12:51:39.098Z,102186.16
2022-10-06T12:54:24.242Z,102186.31
2022-10-06T12:57:02.753Z,102189.22
2022-10-06T12:59:32.130Z,102186.50
2022-10-06T13:02:01.258Z,102200.09
2022-10-06T13:04:35.421Z,102197.09
2022-10-06T13:07:22.427Z,102200.25
2022-10-06T13:09:52.651Z,102191.59
2022-10-06T13:12:38.086Z,102186.47
2022-10-06T13:15:19.242Z,102196.66
2022-10-06T13:18:03.481Z,102201.19
2022-10-06T13:20:37.465Z,102201.94
2022-10-06T13:23:08.845Z,102198.63
2022-10-06T13:25:44.407Z,102202.88
2022-10-06T13:28:30.872Z,102204.44
2022-10-06T13:33:40.027Z,102205.38
2022-10-06T13:36:08.859Z,102195.19
2022-10-06T13:38:36.877Z,102201.91
2022-10-06T13:41:06.804Z,102195.94
2022-10-06T13:43:39.911Z,102197.28
2022-10-06T13:46:12.643Z,102202.59
2022-10-06T13:49:13.747Z,102205.38
2022-10-06T13:51:48.156Z,102203.94
2022-10-06T13:54:25.236Z,102212.72
2022-10-06T13:56:52.927Z,102216.59
2022-10-06T13:59:30.964Z,102211.44
2022-10-06T14:02:15.546Z,102216.06
2022-10-06T14:04:42.199Z,102214.72
2022-10-06T14:07:13.480Z,102210.59
2022-10-06T14:09:41.838Z,102210.13
2022-10-06T14:12:14.711Z,102213.41
2022-10-06T14:14:47.797Z,102223.00
2022-10-06T14:17:23.660Z,102216.38
2022-10-06T14:19:51.096Z,102210.16
2022-10-06T14:22:38.249Z,102234.81
2022-10-06T14:25:11.908Z,102223.88
2022-10-06T14:27:38.633Z,102231.50
2022-10-06T14:30:05.780Z,102236.88
2022-10-06T14:32:33.400Z,102228.00
2022-10-06T14:35:01.399Z,102230.63
2022-10-06T14:37:27.936Z,102226.34
2022-10-06T14:39:56.002Z,102234.81
2022-10-06T14:42:24.408Z,102235.84
2022-10-06T14:44:51.179Z,102235.97
2022-10-06T14:47:17.995Z,102228.53
2022-10-06T14:49:45.254Z,102238.47
2022-10-06T14:52:12.725Z,102235.72
2022-10-06T14:54:39.562Z,102235.78
2022-10-06T14:57:06.168Z,102241.28
2022-10-06T14:59:32.904Z,102230.69
2022-10-06T15:01:59.437Z,102238.94
2022-10-06T15:04:27.754Z,102238.03
2022-10-06T15:07:13.218Z,102237.22
2022-10-06T15:09:39.841Z,102237.31
2022-10-06T15:12:06.885Z,102239.63
2022-10-06T15:14:39.309Z,102236.84
2022-10-06T15:17:06.087Z,102236.88
2022-10-06T15:19:34.220Z,102241.53
2022-10-06T15:22:01.141Z,102239.50
2022-10-06T15:24:27.717Z,102239.19
2022-10-06T15:27:12.858Z,102241.75
2022-10-06T15:29:39.482Z,102239.09
2022-10-06T15:32:06.602Z,102247.50
2022-10-06T15:34:34.675Z,102246.97
2022-10-06T15:37:01.839Z,102241.47
2022-10-06T15:39:31.148Z,102251.41
2022-10-06T15:41:58.345Z,102247.91
2022-10-06T15:44:25.139Z,102244.94
2022-10-06T15:46:56.015Z,102248.06
2022-10-06T15:49:27.271Z,102247.28
2022-10-06T15:51:56.893Z,102248.97
2022-10-06T15:54:28.696Z,102259.50
2022-10-06T15:56:57.612Z,102251.47
2022-10-06T15:59:25.996Z,102253.78
2022-10-06T16:01:58.148Z,102266.34
2022-10-06T16:04:34.014Z,102262.63
2022-10-06T16:07:01.907Z,102266.75
2022-10-06T16:09:42.038Z,102270.41
2022-10-06T16:12:12.598Z,102264.47
2022-10-06T16:14:39.358Z,102262.13
2022-10-06T16:17:07.193Z,102266.19
2022-10-06T16:19:36.936Z,102266.06
2022-10-06T16:22:05.092Z,102266.47
2022-10-06T16:24:31.965Z,102264.22
2022-10-06T16:27:00.106Z,102273.19
2022-10-06T16:29:27.822Z,102271.44
2022-10-06T16:31:56.129Z,102272.06
2022-10-06T16:34:23.014Z,102268.06
2022-10-06T16:36:49.624Z,102272.50
2022-10-06T16:39:19.874Z,102277.75
2022-10-06T16:41:47.017Z,102268.66
2022-10-06T16:44:13.856Z,102275.41
2022-10-06T16:46:40.831Z,102278.16
2022-10-06T16:49:09.217Z,102285.63
2022-10-06T16:51:39.079Z,102288.44
2022-10-06T16:54:11.194Z,102292.91
2022-10-06T16:56:43.811Z,102294.28
2022-10-06T16:59:16.189Z,102294.03
2022-10-06T17:01:43.195Z,102303.59
2022-10-06T17:04:20.301Z,102303.59
2022-10-06T17:06:57.420Z,102304.13
2022-10-06T17:09:26.112Z,102303.38
2022-10-06T17:11:55.695Z,102309.19
2022-10-06T17:14:23.007Z,102303.69
2022-10-06T17:16:51.352Z,102309.63
2022-10-06T17:19:20.178Z,102297.56
2022-10-06T17:21:49.626Z,102303.78
2022-10-06T17:24:20.270Z,102309.41
2022-10-06T17:26:48.761Z,102309.81
2022-10-06T17:29:21.469Z,102313.19
2022-10-06T17:31:50.473Z,102309.28
2022-10-06T17:34:21.846Z,102317.78
2022-10-06T17:36:51.222Z,102318.28
2022-10-06T17:39:23.004Z,102317.34
2022-10-06T17:41:52.483Z,102319.00
2022-10-06T17:44:23.784Z,102318.00
2022-10-06T17:47:00.516Z,102315.78
2022-10-06T17:49:29.885Z,102311.84
2022-10-06T17:51:56.507Z,102313.53
2022-10-06T17:54:25.354Z,102322.06
2022-10-06T17:56:54.698Z,102323.63
2022-10-06T17:59:24.048Z,102317.75
2022-10-06T18:01:52.112Z,102324.84
2022-10-06T18:04:19.595Z,102327.13
2022-10-06T18:06:47.610Z,102326.09
2022-10-06T18:09:16.001Z,102323.78
2022-10-06T18:11:45.742Z,102329.94
2022-10-06T18:14:16.617Z,102329.94
2022-10-06T18:16:58.391Z,102329.38
2022-10-06T18:19:30.800Z,102317.28
2022-10-06T18:22:12.802Z,102315.34
2022-10-06T18:24:40.167Z,102324.00
2022-10-06T18:27:08.227Z,102315.66
2022-10-06T18:29:37.421Z,102319.19
2022-10-06T18:33:40.741Z,102322.31
2022-10-06T18:37:41.759Z,102318.38
2022-10-06T18:40:10.016Z,102316.03
2022-10-06T18:42:37.217Z,102315.13
2022-10-06T18:45:23.044Z,102314.69
2022-10-06T18:48:09.211Z,102327.19
2022-10-06T18:50:35.811Z,102328.81
2022-10-06T18:53:04.111Z,102328.44
2022-10-06T18:55:31.644Z,102335.63
2022-10-06T18:57:59.099Z,102325.44
2022-10-06T19:00:26.042Z,102333.03
2022-10-06T19:02:54.905Z,102331.78
2022-10-06T19:05:21.501Z,102334.31
2022-10-06T19:07:48.089Z,102332.50
2022-10-06T19:10:14.678Z,102332.38
2022-10-06T19:12:41.342Z,102323.78
2022-10-06T19:15:10.018Z,102331.66
2022-10-06T19:17:38.119Z,102334.50
2022-10-06T19:20:05.087Z,102343.22
2022-10-06T19:22:33.579Z,102343.66
2022-10-06T19:25:00.201Z,102336.75
2022-10-06T19:27:28.879Z,102342.16
2022-10-06T19:29:56.728Z,102341.66
2022-10-06T19:32:31.063Z,102346.53
2022-10-06T19:34:58.768Z,102351.66
2022-10-06T19:37:27.242Z,102351.38
2022-10-06T19:39:54.029Z,102349.53
2022-10-06T19:42:39.258Z,102344.69
2022-10-06T19:45:07.903Z,102345.66
2022-10-06T19:47:34.638Z,102345.88
2022-10-06T19:50:05.977Z,102348.09
2022-10-06T19:52:36.974Z,102348.81
2022-10-06T19:55:05.344Z,102349.59
2022-10-06T19:57:32.649Z,102348.22
2022-10-06T19:59:59.351Z,102348.63
2022-10-06T20:02:26.003Z,102345.16
2022-10-06T20:04:52.598Z,102341.47
2022-10-06T20:07:21.851Z,102348.28
2022-10-06T20:09:48.860Z,102345.00
2022-10-06T20:12:17.828Z,102342.16
2022-10-06T20:14:47.671Z,102346.94
2022-10-06T20:17:14.263Z,102348.06
2022-10-06T20:19:40.824Z,102354.53
2022-10-06T20:22:07.446Z,102356.94
2022-10-06T20:24:34.106Z,102350.09
2022-10-06T20:27:00.745Z,102359.00
2022-10-06T20:29:28.543Z,102349.31
2022-10-06T20:31:58.859Z,102353.38
2022-10-06T20:34:32.603Z,102357.66
2022-10-06T20:37:04.217Z,102353.53
2022-10-06T20:39:51.550Z,102357.41
2022-10-06T20:42:20.051Z,102347.16
2022-10-06T20:44:46.945Z,102352.72
2022-10-06T20:47:14.084Z,102353.94
2022-10-06T20:49:42.503Z,102349.25
2022-10-06T20:52:10.001Z,102351.56
2022-10-06T20:54:37.301Z,102350.19
2022-10-06T20:57:06.021Z,102351.47
2022-10-06T20:59:36.992Z,102358.34
2022-10-06T21:02:05.289Z,102347.56
2022-10-06T21:04:32.198Z,102357.06
2022-10-06T21:06:58.880Z,102359.31
2022-10-06T21:09:28.263Z,102351.97
2022-10-06T21:11:55.331Z,102348.47
2022-10-06T21:14:21.912Z,102354.13
2022-10-06T21:16:50.697Z,102356.66
2022-10-06T21:19:19.363Z,102352.22
2022-10-06T21:21:51.832Z,102358.56
2022-10-06T21:24:18.760Z,102354.38
2022-10-06T21:26:45.452Z,102357.66
2022-10-06T21:29:14.113Z,102350.34
2022-10-06T21:31:41.447Z,102346.25
2022-10-06T21:34:08.220Z,102338.41
2022-10-06T21:36:34.908Z,102345.03
2022-10-06T21:39:03.449Z,102339.06
2022-10-06T21:41:38.406Z,102338.41
2022-10-06T21:44:07.865Z,102334.69
2022-10-06T21:46:49.552Z,102335.94
2022-10-06T21:49:18.753Z,102340.75
2022-10-06T21:51:47.613Z,102336.56
2022-10-06T21:54:14.954Z,102332.28
2022-10-06T21:56:42.100Z,102328.19
2022-10-06T21:59:09.232Z,102323.44
2022-10-06T22:01:38.448Z,102328.38
2022-10-06T22:04:06.191Z,102319.34
2022-10-06T22:06:34.895Z,102326.41
2022-10-06T22:09:03.356Z,102320.88
2022-10-06T22:11:32.590Z,102317.38
2022-10-06T22:14:01.350Z,102315.97
2022-10-06T22:16:30.582Z,102319.16
2022-10-06T22:18:57.821Z,102316.94
2022-10-06T22:21:27.295Z,102319.41
2022-10-06T22:23:59.460Z,102313.84
2022-10-06T22:26:27.927Z,102307.22
2022-10-06T22:28:56.507Z,102315.41
2022-10-06T22:31:26.193Z,102306.91
2022-10-06T22:34:01.543Z,102308.13
2022-10-06T22:36:28.861Z,102306.53
2022-10-06T22:38:56.465Z,102310.81
2022-10-06T22:41:24.049Z,102309.22
2022-10-06T22:43:57.463Z,102302.22
2022-10-06T22:46:30.135Z,102300.47
2022-10-06T22:48:56.972Z,102301.03
2022-10-06T22:51:24.295Z,102292.81
2022-10-06T22:53:58.915Z,102293.03
2022-10-06T22:56:31.517Z,102293.88
2022-10-06T22:58:59.703Z,102295.00
2022-10-06T23:01:27.010Z,102291.06
2022-10-06T23:03:55.534Z,102285.19
2022-10-06T23:06:22.127Z,102288.91
2022-10-06T23:08:48.698Z,102281.13
2022-10-06T23:11:18.179Z,102284.19
2022-10-06T23:13:45.690Z,102277.97
2022-10-06T23:16:15.609Z,102282.41
2022-10-06T23:18:43.787Z,102278.84
2022-10-06T23:21:19.032Z,102278.53
2022-10-06T23:23:46.445Z,102274.09
2022-10-06T23:26:15.472Z,102262.69
2022-10-06T23:28:42.816Z,102261.09
2022-10-06T23:31:11.201Z,102261.09
2022-10-06T23:33:38.463Z,102264.38
2022-10-06T23:36:08.232Z,102259.38
2022-10-06T23:38:36.421Z,102263.94
2022-10-06T23:41:03.672Z,102266.97
2022-10-06T23:43:30.402Z,102257.00
2022-10-06T23:45:57.215Z,102266.06
2022-10-06T23:48:24.169Z,102255.28
2022-10-06T23:51:02.614Z,102262.25
2022-10-06T23:53:30.645Z,102274.22
2022-10-06T23:55:57.292Z,102271.38
2022-10-06T23:58:24.653Z,102266.59
